createdAt,value
2019-02-18T00:00:24.129Z,18.35
2019-02-18T00:01:24.014Z,18.35
2019-02-18T00:02:24.127Z,18.35
2019-02-18T00:03:24.301Z,18.34
2019-02-18T00:04:24.901Z,18.34
2019-02-18T00:05:25.734Z,18.33
2019-02-18T00:06:23.989Z,18.33
2019-02-18T00:07:24.272Z,18.32
2019-02-18T00:08:23.833Z,18.31
2019-02-18T00:09:24.317Z,18.3
2019-02-18T00:10:24.699Z,18.3
2019-02-18T00:11:23.836Z,18.3
2019-02-18T00:12:24.208Z,18.29
2019-02-18T00:13:24.242Z,18.29
2019-02-18T00:14:24.148Z,18.29
2019-02-18T00:15:24.038Z,18.28
2019-02-18T00:16:24.239Z,18.27
2019-02-18T00:17:24.233Z,18.26
2019-02-18T00:18:24.254Z,18.26
2019-02-18T00:19:24.040Z,18.25
2019-02-18T00:20:23.937Z,18.25
2019-02-18T00:21:32.909Z,18.24
2019-02-18T00:22:23.905Z,18.24
2019-02-18T00:23:24.215Z,18.23
2019-02-18T00:24:23.952Z,18.23
2019-02-18T00:25:24.088Z,18.23
2019-02-18T00:26:25.859Z,18.23
2019-02-18T00:27:24.820Z,18.22
2019-02-18T00:28:23.822Z,18.22
2019-02-18T00:29:24.342Z,18.21
2019-02-18T00:30:24.251Z,18.21
2019-02-18T00:31:24.341Z,18.19
2019-02-18T00:32:24.263Z,18.2
2019-02-18T00:33:24.441Z,18.19
2019-02-18T00:34:24.063Z,18.19
2019-02-18T00:35:24.183Z,18.18
2019-02-18T00:36:24.298Z,18.18
2019-02-18T00:37:25.028Z,18.17
2019-02-18T00:38:24.410Z,18.17
2019-02-18T00:39:23.821Z,18.17
2019-02-18T00:40:24.326Z,18.17
2019-02-18T00:41:23.918Z,18.17
2019-02-18T00:42:24.334Z,18.16
2019-02-18T00:43:24.329Z,18.16
2019-02-18T00:44:24.243Z,18.15
2019-02-18T00:45:23.946Z,18.14
2019-02-18T00:46:23.984Z,18.14
2019-02-18T00:47:23.863Z,18.14
2019-02-18T00:48:24.062Z,18.13
2019-02-18T00:49:24.790Z,18.12
2019-02-18T00:50:25.690Z,18.12
2019-02-18T00:51:24.076Z,18.11
2019-02-18T00:52:24.204Z,18.1
2019-02-18T00:53:24.210Z,18.1
2019-02-18T00:54:23.871Z,18.1
2019-02-18T00:55:24.174Z,18.1
2019-02-18T00:56:24.152Z,18.1
2019-02-18T00:57:24.126Z,18.09
2019-02-18T00:58:24.273Z,18.1
2019-02-18T00:59:24.878Z,18.1
2019-02-18T01:00:24.749Z,18.09
2019-02-18T01:01:24.622Z,18.09
2019-02-18T01:02:23.725Z,18.09
2019-02-18T01:03:24.068Z,18.08
2019-02-18T01:04:24.055Z,18.08
2019-02-18T01:05:24.008Z,18.07
2019-02-18T01:06:24.114Z,18.06
2019-02-18T01:07:35.465Z,18.06
2019-02-18T01:08:24.164Z,18.05
2019-02-18T01:09:24.023Z,18.05
2019-02-18T01:10:24.320Z,18.04
2019-02-18T01:11:24.353Z,18.04
2019-02-18T01:12:24.379Z,18.04
2019-02-18T01:13:24.032Z,18.04
2019-02-18T01:14:24.329Z,18.03
2019-02-18T01:15:23.805Z,18.03
2019-02-18T01:16:24.000Z,18.02
2019-02-18T01:17:25.711Z,18.02
2019-02-18T01:18:24.688Z,18.01
2019-02-18T01:19:24.392Z,18.01
2019-02-18T01:20:23.921Z,18
2019-02-18T01:21:23.855Z,18
2019-02-18T01:22:24.279Z,18
2019-02-18T01:23:23.854Z,17.99
2019-02-18T01:24:24.245Z,17.99
2019-02-18T01:25:24.015Z,17.98
2019-02-18T01:26:24.833Z,17.98
2019-02-18T01:27:24.015Z,17.98
2019-02-18T01:28:23.789Z,17.98
2019-02-18T01:29:23.847Z,17.98
2019-02-18T01:30:24.244Z,17.97
2019-02-18T01:31:24.278Z,17.97
2019-02-18T01:32:24.391Z,17.97
2019-02-18T01:33:24.705Z,17.96
2019-02-18T01:34:24.815Z,17.96
2019-02-18T01:35:24.065Z,17.95
2019-02-18T01:36:23.971Z,17.95
2019-02-18T01:37:24.090Z,17.94
2019-02-18T01:38:23.922Z,17.94
2019-02-18T01:39:24.124Z,17.94
2019-02-18T01:40:23.775Z,17.94
2019-02-18T01:41:24.606Z,17.93
2019-02-18T01:42:24.120Z,17.92
2019-02-18T01:43:23.911Z,17.92
2019-02-18T01:44:23.801Z,17.92
2019-02-18T01:45:24.133Z,17.92
2019-02-18T01:46:23.908Z,17.91
2019-02-18T01:47:24.182Z,17.91
2019-02-18T01:48:24.182Z,17.91
2019-02-18T01:49:24.283Z,17.91
2019-02-18T01:50:24.747Z,17.9
2019-02-18T01:51:23.991Z,17.89
2019-02-18T01:52:23.893Z,17.9
2019-02-18T01:53:24.151Z,17.89
2019-02-18T01:54:24.348Z,17.87
2019-02-18T01:55:24.439Z,17.86
2019-02-18T01:56:24.808Z,17.87
2019-02-18T01:57:25.880Z,17.86
2019-02-18T01:58:24.159Z,17.86
2019-02-18T01:59:24.468Z,17.86
2019-02-18T02:00:24.280Z,17.86
2019-02-18T02:01:24.080Z,17.86
2019-02-18T02:02:23.897Z,17.86
2019-02-18T02:03:25.548Z,17.86
2019-02-18T02:04:24.235Z,17.86
2019-02-18T02:05:24.040Z,17.86
2019-02-18T02:06:24.226Z,17.86
2019-02-18T02:07:23.782Z,17.85
2019-02-18T02:08:23.975Z,17.85
2019-02-18T02:09:24.656Z,17.85
2019-02-18T02:10:24.344Z,17.84
2019-02-18T02:11:24.107Z,17.84
2019-02-18T02:12:23.912Z,17.83
2019-02-18T02:13:24.109Z,17.83
2019-02-18T02:14:23.989Z,17.83
2019-02-18T02:15:25.657Z,17.82
2019-02-18T02:16:24.014Z,17.82
2019-02-18T02:17:24.130Z,17.82
2019-02-18T02:18:25.723Z,17.81
2019-02-18T02:19:23.947Z,17.81
2019-02-18T02:20:24.292Z,17.8
2019-02-18T02:21:23.839Z,17.8
2019-02-18T02:22:24.323Z,17.8
2019-02-18T02:23:24.059Z,17.8
2019-02-18T02:24:24.008Z,17.79
2019-02-18T02:25:24.008Z,17.79
2019-02-18T02:26:23.910Z,17.79
2019-02-18T02:27:24.143Z,17.79
2019-02-18T02:28:24.285Z,17.79
2019-02-18T02:29:24.118Z,17.79
2019-02-18T02:30:23.917Z,17.78
2019-02-18T02:31:23.871Z,17.78
2019-02-18T02:32:24.016Z,17.78
2019-02-18T02:33:24.233Z,17.77
2019-02-18T02:34:23.989Z,17.77
2019-02-18T02:35:23.745Z,17.76
2019-02-18T02:36:23.932Z,17.76
2019-02-18T02:37:25.049Z,17.76
2019-02-18T02:38:25.691Z,17.75
2019-02-18T02:39:23.954Z,17.75
2019-02-18T02:40:24.969Z,17.74
2019-02-18T02:41:24.765Z,17.74
2019-02-18T02:42:23.998Z,17.73
2019-02-18T02:43:24.184Z,17.73
2019-02-18T02:44:24.126Z,17.73
2019-02-18T02:45:24.011Z,17.73
2019-02-18T02:46:24.423Z,17.73
2019-02-18T02:47:23.928Z,17.73
2019-02-18T02:48:23.814Z,17.72
2019-02-18T02:49:23.648Z,17.71
2019-02-18T02:50:23.693Z,17.71
2019-02-18T02:51:24.639Z,17.71
2019-02-18T02:52:23.594Z,17.71
2019-02-18T02:53:24.105Z,17.7
2019-02-18T02:54:24.324Z,17.7
2019-02-18T02:55:23.766Z,17.7
2019-02-18T02:56:23.738Z,17.7
2019-02-18T02:57:24.302Z,17.69
2019-02-18T02:58:24.159Z,17.69
2019-02-18T02:59:23.808Z,17.68
2019-02-18T03:00:25.388Z,17.68
2019-02-18T03:01:24.041Z,17.67
2019-02-18T03:02:24.668Z,17.67
2019-02-18T03:03:24.617Z,17.67
2019-02-18T03:04:23.876Z,17.67
2019-02-18T03:05:24.307Z,17.67
2019-02-18T03:06:23.731Z,17.66
2019-02-18T03:07:23.845Z,17.65
2019-02-18T03:08:23.948Z,17.65
2019-02-18T03:09:23.809Z,17.65
2019-02-18T03:10:26.016Z,17.64
2019-02-18T03:11:24.954Z,17.64
2019-02-18T03:12:23.862Z,17.63
2019-02-18T03:13:23.998Z,17.63
2019-02-18T03:14:24.054Z,17.63
2019-02-18T03:15:25.624Z,17.63
2019-02-18T03:16:24.007Z,17.62
2019-02-18T03:17:24.262Z,17.62
2019-02-18T03:18:23.688Z,17.62
2019-02-18T03:19:23.982Z,17.62
2019-02-18T03:20:24.349Z,17.62
2019-02-18T03:21:25.668Z,17.61
2019-02-18T03:22:24.173Z,17.61
2019-02-18T03:23:24.329Z,17.61
2019-02-18T03:24:23.941Z,17.61
2019-02-18T03:25:25.154Z,17.61
2019-02-18T03:26:24.190Z,17.6
2019-02-18T03:27:25.653Z,17.59
2019-02-18T03:28:23.869Z,17.6
2019-02-18T03:29:24.510Z,17.6
2019-02-18T03:30:25.704Z,17.58
2019-02-18T03:31:23.999Z,17.59
2019-02-18T03:32:24.571Z,17.59
2019-02-18T03:33:23.880Z,17.58
2019-02-18T03:34:23.965Z,17.58
2019-02-18T03:35:23.717Z,17.58
2019-02-18T03:36:24.231Z,17.57
2019-02-18T03:37:23.913Z,17.57
2019-02-18T03:38:32.321Z,17.56
2019-02-18T03:39:23.767Z,17.55
2019-02-18T03:40:24.395Z,17.56
2019-02-18T03:41:24.223Z,17.55
2019-02-18T03:42:24.192Z,17.54
2019-02-18T03:43:23.738Z,17.54
2019-02-18T03:44:24.073Z,17.54
2019-02-18T03:45:23.784Z,17.54
2019-02-18T03:46:25.713Z,17.54
2019-02-18T03:47:23.593Z,17.54
2019-02-18T03:48:23.698Z,17.53
2019-02-18T03:49:23.752Z,17.53
2019-02-18T03:50:23.726Z,17.53
2019-02-18T03:51:23.733Z,17.53
2019-02-18T03:52:23.952Z,17.52
2019-02-18T03:53:23.837Z,17.51
2019-02-18T03:54:23.842Z,17.5
2019-02-18T03:55:24.352Z,17.51
2019-02-18T03:56:23.774Z,17.5
2019-02-18T03:57:24.093Z,17.5
2019-02-18T03:58:24.270Z,17.5
2019-02-18T03:59:23.888Z,17.5
2019-02-18T04:00:24.182Z,17.5
2019-02-18T04:01:23.933Z,17.49
2019-02-18T04:02:24.084Z,17.49
2019-02-18T04:03:23.989Z,17.49
2019-02-18T04:04:23.842Z,17.49
2019-02-18T04:05:23.844Z,17.48
2019-02-18T04:06:24.444Z,17.49
2019-02-18T04:07:32.952Z,17.48
2019-02-18T04:08:25.516Z,17.48
2019-02-18T04:09:24.928Z,17.47
2019-02-18T04:10:23.971Z,17.48
2019-02-18T04:11:23.949Z,17.47
2019-02-18T04:12:24.012Z,17.47
2019-02-18T04:13:24.188Z,17.46
2019-02-18T04:14:23.887Z,17.46
2019-02-18T04:15:24.319Z,17.46
2019-02-18T04:16:24.031Z,17.46
2019-02-18T04:17:23.901Z,17.45
2019-02-18T04:18:24.085Z,17.45
2019-02-18T04:19:24.038Z,17.45
2019-02-18T04:20:24.117Z,17.43
2019-02-18T04:21:23.887Z,17.44
2019-02-18T04:22:23.940Z,17.45
2019-02-18T04:23:24.109Z,17.44
2019-02-18T04:24:23.922Z,17.44
2019-02-18T04:25:24.051Z,17.43
2019-02-18T04:26:24.014Z,17.43
2019-02-18T04:27:23.903Z,17.43
2019-02-18T04:28:23.906Z,17.43
2019-02-18T04:29:24.151Z,17.42
2019-02-18T04:30:23.904Z,17.42
2019-02-18T04:31:24.528Z,17.42
2019-02-18T04:32:24.097Z,17.42
2019-02-18T04:33:23.593Z,17.42
2019-02-18T04:34:24.171Z,17.42
2019-02-18T04:35:24.242Z,17.42
2019-02-18T04:36:24.033Z,17.42
2019-02-18T04:37:23.827Z,17.41
2019-02-18T04:38:23.913Z,17.41
2019-02-18T04:39:23.963Z,17.42
2019-02-18T04:40:24.025Z,17.42
2019-02-18T04:41:24.335Z,17.42
2019-02-18T04:42:23.908Z,17.42
2019-02-18T04:43:24.358Z,17.42
2019-02-18T04:44:23.969Z,17.42
2019-02-18T04:45:24.482Z,17.42
2019-02-18T04:46:24.193Z,17.43
2019-02-18T04:47:24.350Z,17.43
2019-02-18T04:48:25.645Z,17.44
2019-02-18T04:49:23.906Z,17.44
2019-02-18T04:50:23.906Z,17.45
2019-02-18T04:51:23.709Z,17.46
2019-02-18T04:52:24.279Z,17.48
2019-02-18T04:53:24.096Z,17.48
2019-02-18T04:54:23.740Z,17.5
2019-02-18T04:55:23.907Z,17.51
2019-02-18T04:56:24.121Z,17.53
2019-02-18T04:57:24.326Z,17.54
2019-02-18T04:58:23.922Z,17.54
2019-02-18T04:59:24.136Z,17.55
2019-02-18T05:00:24.033Z,17.56
2019-02-18T05:01:24.262Z,17.58
2019-02-18T05:02:24.037Z,17.6
2019-02-18T05:03:23.866Z,17.61
2019-02-18T05:04:24.021Z,17.63
2019-02-18T05:05:23.630Z,17.65
2019-02-18T05:06:25.961Z,17.66
2019-02-18T05:07:24.425Z,17.68
2019-02-18T05:08:25.664Z,17.7
2019-02-18T05:09:23.912Z,17.71
2019-02-18T05:10:24.238Z,17.73
2019-02-18T05:11:24.230Z,17.74
2019-02-18T05:12:24.014Z,17.76
2019-02-18T05:13:25.802Z,17.79
2019-02-18T05:14:23.642Z,17.81
2019-02-18T05:15:23.662Z,17.82
2019-02-18T05:16:23.547Z,17.84
2019-02-18T05:17:23.733Z,17.86
2019-02-18T05:18:23.457Z,17.87
2019-02-18T05:19:23.779Z,17.89
2019-02-18T05:20:24.125Z,17.91
2019-02-18T05:21:23.713Z,17.92
2019-02-18T05:22:25.601Z,17.94
2019-02-18T05:23:24.074Z,17.96
2019-02-18T05:24:23.621Z,17.98
2019-02-18T05:25:24.345Z,17.99
2019-02-18T05:26:24.744Z,18.01
2019-02-18T05:27:33.910Z,18.02
2019-02-18T05:28:23.986Z,18.03
2019-02-18T05:29:24.605Z,18.04
2019-02-18T05:30:24.491Z,18.06
2019-02-18T05:31:23.935Z,18.07
2019-02-18T05:32:24.212Z,18.09
2019-02-18T05:33:23.960Z,18.1
2019-02-18T05:34:23.862Z,18.11
2019-02-18T05:35:24.066Z,18.13
2019-02-18T05:36:23.879Z,18.15
2019-02-18T05:37:24.007Z,18.16
2019-02-18T05:38:24.542Z,18.17
2019-02-18T05:39:23.776Z,18.18
2019-02-18T05:40:23.902Z,18.18
2019-02-18T05:41:23.884Z,18.21
2019-02-18T05:42:23.811Z,18.22
2019-02-18T05:43:24.126Z,18.22
2019-02-18T05:44:23.736Z,18.24
2019-02-18T05:45:23.783Z,18.26
2019-02-18T05:46:23.901Z,18.27
2019-02-18T05:47:24.076Z,18.28
2019-02-18T05:48:23.743Z,18.29
2019-02-18T05:49:23.805Z,18.29
2019-02-18T05:50:23.787Z,18.31
2019-02-18T05:51:23.997Z,18.32
2019-02-18T05:52:23.902Z,18.33
2019-02-18T05:53:23.835Z,18.35
2019-02-18T05:54:24.006Z,18.35
2019-02-18T05:55:23.973Z,18.37
2019-02-18T05:56:24.055Z,18.37
2019-02-18T05:57:24.755Z,18.38
2019-02-18T05:58:23.831Z,18.39
2019-02-18T05:59:23.897Z,18.4
2019-02-18T06:00:24.672Z,18.41
2019-02-18T06:01:24.195Z,18.41
2019-02-18T06:02:24.177Z,18.41
2019-02-18T06:03:23.903Z,18.43
2019-02-18T06:04:23.730Z,18.43
2019-02-18T06:05:23.948Z,18.43
2019-02-18T06:06:23.771Z,18.44
2019-02-18T06:07:23.843Z,18.45
2019-02-18T06:08:24.050Z,18.46
2019-02-18T06:09:30.608Z,18.47
2019-02-18T06:10:23.944Z,18.47
2019-02-18T06:11:24.014Z,18.47
2019-02-18T06:12:24.868Z,18.48
2019-02-18T06:13:24.246Z,18.48
2019-02-18T06:14:24.057Z,18.48
2019-02-18T06:15:24.079Z,18.48
2019-02-18T06:16:24.824Z,18.48
2019-02-18T06:17:23.754Z,18.48
2019-02-18T06:18:24.154Z,18.5
2019-02-18T06:19:23.972Z,18.5
2019-02-18T06:20:24.795Z,18.5
2019-02-18T06:21:24.004Z,18.5
2019-02-18T06:22:24.278Z,18.5
2019-02-18T06:23:23.723Z,18.5
2019-02-18T06:24:23.888Z,18.5
2019-02-18T06:25:23.972Z,18.51
2019-02-18T06:26:24.456Z,18.51
2019-02-18T06:27:25.611Z,18.51
2019-02-18T06:28:24.054Z,18.51
2019-02-18T06:29:24.172Z,18.51
2019-02-18T06:30:23.683Z,18.51
2019-02-18T06:31:23.704Z,18.5
2019-02-18T06:32:24.413Z,18.51
2019-02-18T06:33:23.731Z,18.5
2019-02-18T06:34:23.860Z,18.5
2019-02-18T06:35:24.501Z,18.52
2019-02-18T06:36:24.356Z,18.52
2019-02-18T06:37:24.009Z,18.51
2019-02-18T06:38:24.042Z,18.5
2019-02-18T06:39:23.947Z,18.51
2019-02-18T06:40:23.873Z,18.54
2019-02-18T06:41:24.061Z,18.54
2019-02-18T06:42:24.076Z,18.52
2019-02-18T06:43:24.146Z,18.53
2019-02-18T06:44:24.569Z,18.53
2019-02-18T06:45:23.909Z,18.54
2019-02-18T06:46:24.237Z,18.54
2019-02-18T06:47:25.573Z,18.54
2019-02-18T06:48:23.951Z,18.54
2019-02-18T06:49:23.888Z,18.54
2019-02-18T06:50:23.897Z,18.56
2019-02-18T06:51:24.053Z,18.56
2019-02-18T06:52:24.192Z,18.58
2019-02-18T06:53:23.797Z,18.58
2019-02-18T06:54:24.127Z,18.58
2019-02-18T06:55:24.095Z,18.56
2019-02-18T06:56:24.335Z,18.58
2019-02-18T06:57:23.827Z,18.58
2019-02-18T06:58:23.920Z,18.58
2019-02-18T06:59:23.996Z,18.59
2019-02-18T07:00:23.801Z,18.6
2019-02-18T07:01:24.576Z,18.6
2019-02-18T07:02:23.876Z,18.6
2019-02-18T07:03:23.967Z,18.6
2019-02-18T07:04:23.752Z,18.6
2019-02-18T07:05:23.906Z,18.58
2019-02-18T07:06:25.790Z,18.57
2019-02-18T07:07:24.438Z,18.57
2019-02-18T07:08:23.651Z,18.57
2019-02-18T07:09:24.232Z,18.56
2019-02-18T07:10:24.041Z,18.55
2019-02-18T07:11:24.972Z,18.55
2019-02-18T07:12:24.009Z,18.55
2019-02-18T07:13:24.590Z,18.55
2019-02-18T07:14:25.624Z,18.54
2019-02-18T07:15:24.004Z,18.54
2019-02-18T07:16:24.110Z,18.54
2019-02-18T07:17:24.409Z,18.54
2019-02-18T07:18:23.782Z,18.56
2019-02-18T07:19:23.926Z,18.54
2019-02-18T07:20:24.026Z,18.54
2019-02-18T07:21:23.791Z,18.54
2019-02-18T07:22:24.303Z,18.54
2019-02-18T07:23:25.051Z,18.54
2019-02-18T07:24:24.304Z,18.54
2019-02-18T07:25:23.869Z,18.54
2019-02-18T07:26:24.638Z,18.54
2019-02-18T07:27:23.712Z,18.54
2019-02-18T07:28:24.379Z,18.54
2019-02-18T07:29:24.898Z,18.53
2019-02-18T07:30:23.668Z,18.53
2019-02-18T07:31:24.697Z,18.52
2019-02-18T07:32:24.732Z,18.53
2019-02-18T07:33:24.329Z,18.52
2019-02-18T07:34:23.722Z,18.52
2019-02-18T07:35:24.155Z,18.53
2019-02-18T07:36:25.581Z,18.52
2019-02-18T07:37:23.704Z,18.53
2019-02-18T07:38:25.794Z,18.52
2019-02-18T07:39:23.792Z,18.52
2019-02-18T07:40:25.648Z,18.52
2019-02-18T07:41:23.476Z,18.53
2019-02-18T07:42:23.582Z,18.53
2019-02-18T07:43:23.695Z,18.53
2019-02-18T07:44:23.972Z,18.53
2019-02-18T07:45:23.781Z,18.53
2019-02-18T07:46:25.818Z,18.53
2019-02-18T07:47:24.018Z,18.53
2019-02-18T07:48:24.000Z,18.54
2019-02-18T07:49:23.743Z,18.53
2019-02-18T07:50:25.193Z,18.54
2019-02-18T07:51:24.608Z,18.54
2019-02-18T07:52:23.937Z,18.53
2019-02-18T07:53:23.856Z,18.53
2019-02-18T07:54:25.686Z,18.54
2019-02-18T07:55:23.935Z,18.53
2019-02-18T07:56:24.291Z,18.54
2019-02-18T07:57:23.933Z,18.54
2019-02-18T07:58:24.761Z,18.53
2019-02-18T07:59:24.102Z,18.53
2019-02-18T08:00:23.785Z,18.54
2019-02-18T08:01:23.980Z,18.54
2019-02-18T08:02:24.120Z,18.54
2019-02-18T08:03:24.080Z,18.54
2019-02-18T08:04:23.784Z,18.54
2019-02-18T08:05:23.959Z,18.54
2019-02-18T08:06:24.036Z,18.54
2019-02-18T08:07:23.683Z,18.54
2019-02-18T08:08:23.792Z,18.54
2019-02-18T08:09:23.861Z,18.54
2019-02-18T08:10:24.061Z,18.55
2019-02-18T08:11:24.023Z,18.55
2019-02-18T08:12:23.868Z,18.55
2019-02-18T08:13:27.085Z,18.55
2019-02-18T08:14:25.665Z,18.55
2019-02-18T08:15:23.967Z,18.56
2019-02-18T08:16:23.732Z,18.57
2019-02-18T08:17:24.093Z,18.57
2019-02-18T08:18:23.864Z,18.57
2019-02-18T08:19:24.023Z,18.58
2019-02-18T08:20:24.048Z,18.58
2019-02-18T08:21:23.942Z,18.58
2019-02-18T08:22:24.117Z,18.57
2019-02-18T08:23:24.365Z,18.58
2019-02-18T08:24:25.560Z,18.58
2019-02-18T08:25:24.634Z,18.59
2019-02-18T08:26:23.974Z,18.58
2019-02-18T08:27:23.985Z,18.59
2019-02-18T08:28:23.886Z,18.58
2019-02-18T08:29:24.188Z,18.6
2019-02-18T08:30:24.322Z,18.59
2019-02-18T08:31:23.788Z,18.59
2019-02-18T08:32:23.777Z,18.6
2019-02-18T08:33:24.555Z,18.6
2019-02-18T08:34:23.749Z,18.6
2019-02-18T08:35:24.962Z,18.61
2019-02-18T08:36:24.444Z,18.6
2019-02-18T08:37:23.678Z,18.6
2019-02-18T08:38:23.890Z,18.61
2019-02-18T08:39:23.556Z,18.61
2019-02-18T08:40:23.926Z,18.6
2019-02-18T08:41:23.646Z,18.61
2019-02-18T08:42:23.666Z,18.62
2019-02-18T08:43:24.282Z,18.63
2019-02-18T08:44:23.551Z,18.62
2019-02-18T08:45:24.213Z,18.63
2019-02-18T08:46:24.030Z,18.62
2019-02-18T08:47:25.475Z,18.63
2019-02-18T08:48:24.622Z,18.62
2019-02-18T08:49:23.727Z,18.63
2019-02-18T08:50:24.143Z,18.64
2019-02-18T08:51:24.470Z,18.63
2019-02-18T08:52:24.050Z,18.63
2019-02-18T08:53:23.875Z,18.62
2019-02-18T08:54:24.011Z,18.63
2019-02-18T08:55:25.665Z,18.63
2019-02-18T08:56:23.943Z,18.62
2019-02-18T08:57:24.497Z,18.63
2019-02-18T08:58:23.742Z,18.66
2019-02-18T08:59:25.451Z,18.66
2019-02-18T09:00:23.941Z,18.66
2019-02-18T09:01:24.675Z,18.66
2019-02-18T09:02:23.696Z,18.67
2019-02-18T09:03:23.839Z,18.69
2019-02-18T09:04:23.831Z,18.72
2019-02-18T09:05:24.348Z,18.71
2019-02-18T09:06:24.065Z,18.71
2019-02-18T09:07:23.583Z,18.7
2019-02-18T09:08:23.844Z,18.69
2019-02-18T09:09:23.889Z,18.72
2019-02-18T09:10:34.379Z,18.72
2019-02-18T09:11:23.902Z,18.72
2019-02-18T09:12:24.274Z,18.74
2019-02-18T09:13:24.726Z,18.76
2019-02-18T09:14:24.011Z,18.77
2019-02-18T09:15:23.973Z,18.78
2019-02-18T09:16:23.918Z,18.8
2019-02-18T09:17:24.033Z,18.81
2019-02-18T09:18:23.869Z,18.84
2019-02-18T09:19:24.640Z,18.84
2019-02-18T09:20:25.924Z,18.85
2019-02-18T09:21:24.051Z,18.88
2019-02-18T09:22:23.993Z,18.88
2019-02-18T09:23:24.101Z,18.9
2019-02-18T09:24:23.717Z,18.9
2019-02-18T09:25:23.801Z,18.91
2019-02-18T09:26:24.001Z,18.93
2019-02-18T09:27:23.599Z,18.94
2019-02-18T09:28:24.124Z,18.95
2019-02-18T09:29:24.232Z,18.96
2019-02-18T09:30:23.966Z,18.97
2019-02-18T09:31:24.107Z,18.98
2019-02-18T09:32:23.835Z,18.97
2019-02-18T09:33:24.144Z,18.99
2019-02-18T09:34:23.873Z,19
2019-02-18T09:35:23.767Z,19.02
2019-02-18T09:36:23.754Z,19.02
2019-02-18T09:37:24.005Z,19.03
2019-02-18T09:38:25.841Z,19.03
2019-02-18T09:39:31.943Z,19.06
2019-02-18T09:40:24.199Z,19.05
2019-02-18T09:41:24.519Z,19.05
2019-02-18T09:42:26.803Z,19.04
2019-02-18T09:43:23.739Z,19.04
2019-02-18T09:44:23.608Z,19.04
2019-02-18T09:45:24.105Z,19.04
2019-02-18T09:46:23.811Z,19.05
2019-02-18T09:47:23.601Z,19.05
2019-02-18T09:48:23.956Z,19.05
2019-02-18T09:49:24.569Z,19.05
2019-02-18T09:50:23.862Z,19.05
2019-02-18T09:51:24.086Z,19.06
2019-02-18T09:52:23.772Z,19.06
2019-02-18T09:53:23.811Z,19.06
2019-02-18T09:54:24.175Z,19.07
2019-02-18T09:55:23.789Z,19.06
2019-02-18T09:56:23.667Z,19.08
2019-02-18T09:57:24.122Z,19.09
2019-02-18T09:58:23.860Z,19.09
2019-02-18T09:59:23.928Z,19.09
2019-02-18T10:00:23.943Z,19.09
2019-02-18T10:01:23.845Z,19.09
2019-02-18T10:02:24.394Z,19.1
2019-02-18T10:03:32.638Z,19.1
2019-02-18T10:04:24.286Z,19.12
2019-02-18T10:05:24.073Z,19.12
2019-02-18T10:06:23.898Z,19.14
2019-02-18T10:07:24.097Z,19.09
2019-02-18T10:08:23.933Z,19.02
2019-02-18T10:09:23.719Z,18.97
2019-02-18T10:10:24.044Z,18.9
2019-02-18T10:11:23.497Z,18.87
2019-02-18T10:12:24.018Z,18.87
2019-02-18T10:13:24.235Z,18.81
2019-02-18T10:14:24.123Z,18.78
2019-02-18T10:15:23.825Z,18.76
2019-02-18T10:16:23.683Z,18.74
2019-02-18T10:17:23.884Z,18.75
2019-02-18T10:18:23.555Z,18.78
2019-02-18T10:19:24.471Z,18.82
2019-02-18T10:20:23.861Z,18.86
2019-02-18T10:21:23.730Z,18.9
2019-02-18T10:22:23.874Z,18.92
2019-02-18T10:23:23.808Z,18.95
2019-02-18T10:24:23.797Z,18.98
2019-02-18T10:25:24.799Z,18.98
2019-02-18T10:26:25.460Z,19.03
2019-02-18T10:27:23.763Z,19.04
2019-02-18T10:28:23.906Z,19.04
2019-02-18T10:29:23.830Z,19.06
2019-02-18T10:30:25.444Z,19.09
2019-02-18T10:31:23.585Z,19.12
2019-02-18T10:32:23.446Z,19.12
2019-02-18T10:33:23.653Z,19.15
2019-02-18T10:34:24.658Z,19.14
2019-02-18T10:35:26.664Z,19.13
2019-02-18T10:36:24.222Z,19.14
2019-02-18T10:37:24.007Z,19.13
2019-02-18T10:38:23.948Z,19.14
2019-02-18T10:39:24.034Z,19.15
2019-02-18T10:40:23.901Z,19.14
2019-02-18T10:41:23.700Z,19.15
2019-02-18T10:42:23.821Z,19.15
2019-02-18T10:43:33.003Z,19.15
2019-02-18T10:44:23.818Z,19.15
2019-02-18T10:45:25.428Z,19.15
2019-02-18T10:46:24.141Z,19.15
2019-02-18T10:47:23.971Z,19.15
2019-02-18T10:48:23.776Z,19.15
2019-02-18T10:49:25.239Z,19.15
2019-02-18T10:50:23.716Z,19.15
2019-02-18T10:51:23.894Z,19.14
2019-02-18T10:52:24.338Z,19.15
2019-02-18T10:53:24.681Z,19.15
2019-02-18T10:54:23.881Z,19.15
2019-02-18T10:55:23.754Z,19.15
2019-02-18T10:56:24.063Z,19.15
2019-02-18T10:57:27.242Z,19.15
2019-02-18T10:58:23.578Z,19.15
2019-02-18T10:59:24.051Z,19.15
2019-02-18T11:00:24.090Z,19.13
2019-02-18T11:01:24.786Z,19.14
2019-02-18T11:02:23.803Z,19.14
2019-02-18T11:03:23.785Z,19.14
2019-02-18T11:04:23.865Z,19.15
2019-02-18T11:05:23.633Z,19.15
2019-02-18T11:06:23.809Z,19.15
2019-02-18T11:07:24.416Z,19.15
2019-02-18T11:08:23.660Z,19.15
2019-02-18T11:09:23.984Z,19.15
2019-02-18T11:10:23.817Z,19.15
2019-02-18T11:11:23.818Z,19.15
2019-02-18T11:12:23.522Z,19.15
2019-02-18T11:13:24.303Z,19.16
2019-02-18T11:14:25.250Z,19.15
2019-02-18T11:15:24.401Z,19.15
2019-02-18T11:16:25.535Z,19.14
2019-02-18T11:17:23.590Z,19.14
2019-02-18T11:18:23.360Z,19.15
2019-02-18T11:19:23.545Z,19.13
2019-02-18T11:20:23.642Z,19.14
2019-02-18T11:21:23.512Z,19.14
2019-02-18T11:22:23.712Z,19.14
2019-02-18T11:23:24.677Z,19.14
2019-02-18T11:24:27.128Z,19.13
2019-02-18T11:25:23.778Z,19.12
2019-02-18T11:26:23.796Z,19.09
2019-02-18T11:27:23.784Z,19.08
2019-02-18T11:28:24.178Z,19.07
2019-02-18T11:29:23.988Z,19.06
2019-02-18T11:30:23.729Z,19.04
2019-02-18T11:31:24.005Z,19.03
2019-02-18T11:32:25.449Z,19.03
2019-02-18T11:33:23.910Z,19.02
2019-02-18T11:34:23.935Z,19.01
2019-02-18T11:35:24.211Z,19
2019-02-18T11:36:23.692Z,18.99
2019-02-18T11:37:24.579Z,18.99
2019-02-18T11:38:25.587Z,18.97
2019-02-18T11:39:23.970Z,18.95
2019-02-18T11:40:27.039Z,18.94
2019-02-18T11:41:28.064Z,18.93
2019-02-18T11:42:24.250Z,18.91
2019-02-18T11:43:23.750Z,18.92
2019-02-18T11:44:23.897Z,18.92
2019-02-18T11:45:23.963Z,18.9
2019-02-18T11:46:23.854Z,18.9
2019-02-18T11:47:23.924Z,18.9
2019-02-18T11:48:25.872Z,18.89
2019-02-18T11:49:25.455Z,18.9
2019-02-18T11:50:23.741Z,18.89
2019-02-18T11:51:23.984Z,18.88
2019-02-18T11:52:24.087Z,18.87
2019-02-18T11:53:24.266Z,18.88
2019-02-18T11:54:24.253Z,18.86
2019-02-18T11:55:24.083Z,18.86
2019-02-18T11:56:25.214Z,18.87
2019-02-18T11:57:24.171Z,18.85
2019-02-18T11:58:25.561Z,18.84
2019-02-18T11:59:24.936Z,18.84
2019-02-18T12:00:23.707Z,18.84
2019-02-18T12:01:23.970Z,18.83
2019-02-18T12:02:23.951Z,18.83
2019-02-18T12:03:23.975Z,18.82
2019-02-18T12:04:25.777Z,18.81
2019-02-18T12:05:25.530Z,18.8
2019-02-18T12:06:24.174Z,18.79
2019-02-18T12:07:23.779Z,18.79
2019-02-18T12:08:24.021Z,18.78
2019-02-18T12:09:23.824Z,18.77
2019-02-18T12:10:23.996Z,18.77
2019-02-18T12:11:24.559Z,18.75
2019-02-18T12:12:23.991Z,18.73
2019-02-18T12:13:24.494Z,18.73
2019-02-18T12:14:23.768Z,18.72
2019-02-18T12:15:24.210Z,18.72
2019-02-18T12:16:24.333Z,18.72
2019-02-18T12:17:24.580Z,18.71
2019-02-18T12:18:24.074Z,18.69
2019-02-18T12:19:25.889Z,18.68
2019-02-18T12:20:24.779Z,18.67
2019-02-18T12:21:23.809Z,18.66
2019-02-18T12:22:24.785Z,18.66
2019-02-18T12:23:25.520Z,18.66
2019-02-18T12:24:23.724Z,18.64
2019-02-18T12:25:24.075Z,18.64
2019-02-18T12:26:25.320Z,18.63
2019-02-18T12:27:23.957Z,18.62
2019-02-18T12:28:24.008Z,18.6
2019-02-18T12:29:27.195Z,18.6
2019-02-18T12:30:23.829Z,18.6
2019-02-18T12:31:23.709Z,18.59
2019-02-18T12:32:23.869Z,18.58
2019-02-18T12:33:24.141Z,18.58
2019-02-18T12:34:25.890Z,18.57
2019-02-18T12:35:36.090Z,18.56
2019-02-18T12:36:23.740Z,18.56
2019-02-18T12:37:24.063Z,18.54
2019-02-18T12:38:23.980Z,18.54
2019-02-18T12:39:24.072Z,18.54
2019-02-18T12:40:23.886Z,18.54
2019-02-18T12:41:23.639Z,18.54
2019-02-18T12:42:25.641Z,18.53
2019-02-18T12:43:23.712Z,18.52
2019-02-18T12:44:24.574Z,18.52
2019-02-18T12:45:24.469Z,18.49
2019-02-18T12:46:24.009Z,18.48
2019-02-18T12:47:23.750Z,18.46
2019-02-18T12:48:23.863Z,18.48
2019-02-18T12:49:23.964Z,18.48
2019-02-18T12:50:26.721Z,18.5
2019-02-18T12:51:24.573Z,18.5
2019-02-18T12:52:24.729Z,18.49
2019-02-18T12:53:24.233Z,18.5
2019-02-18T12:54:23.987Z,18.51
2019-02-18T12:55:26.581Z,18.5